Time;durP1;ratioP1;P1;durP2;ratioP2;P2;SDS_P1;SDS_P2;PMS_P1;PMS_P2;Temp;Humidity;BMP_temperature;BMP_pressure;BME280_temperature;BME280_humidity;BME280_pressure;Samples;Min_cycle;Max_cycle;Signal;HPM_P1;HPM_P2
2022/09/18 00:01:33;;;;;;;;;7.33;6.33;;;;;;;;5034790;28;45647;-72
2022/09/18 00:03:59;;;;;;;;;7.33;7.33;;;;;;;;5025311;28;46453;-71
2022/09/18 00:06:26;;;;;;;;;9.33;6.67;;;;;;;;5033390;28;46091;-72
2022/09/18 00:08:53;;;;;;;;;9.67;7.00;;;;;;;;5033157;28;45462;-71
2022/09/18 00:11:19;;;;;;;;;10.00;8.00;;;;;;;;5033589;28;45840;-72
2022/09/18 00:13:45;;;;;;;;;8.00;6.67;;;;;;;;5016298;28;45630;-71
2022/09/18 00:16:11;;;;;;;;;8.00;7.00;;;;;;;;5034096;28;45597;-72
2022/09/18 00:18:37;;;;;;;;;11.67;9.33;;;;;;;;5033908;28;45356;-71
2022/09/18 00:21:06;;;;;;;;;14.33;11.67;;;;;;;;5025403;28;45482;-73
2022/09/18 00:23:31;;;;;;;;;10.33;10.00;;;;;;;;5033813;28;45948;-71
2022/09/18 00:25:56;;;;;;;;;13.67;10.67;;;;;;;;5026346;28;45326;-70
2022/09/18 00:28:22;;;;;;;;;13.00;10.00;;;;;;;;5034445;28;45432;-68
2022/09/18 00:30:47;;;;;;;;;14.67;11.00;;;;;;;;5034242;28;45849;-67
2022/09/18 00:33:12;;;;;;;;;11.00;8.00;;;;;;;;5034225;28;45359;-67
2022/09/18 00:35:42;;;;;;;;;11.33;7.67;;;;;;;;5033230;28;45562;-69
2022/09/18 00:38:07;;;;;;;;;12.00;9.67;;;;;;;;5033854;28;45729;-69
2022/09/18 00:40:32;;;;;;;;;8.00;8.00;;;;;;;;5025113;28;45441;-69
2022/09/18 00:42:58;;;;;;;;;13.67;10.00;;;;;;;;5033166;28;45530;-70
2022/09/18 00:45:23;;;;;;;;;13.00;10.00;;;;;;;;5034274;28;45764;-68
2022/09/18 00:47:50;;;;;;;;;9.00;9.00;;;;;;;;5042856;28;45353;-72
2022/09/18 00:50:19;;;;;;;;;10.67;8.00;;;;;;;;5016056;28;45835;-68
2022/09/18 00:52:47;;;;;;;;;10.00;10.00;;;;;;;;5016013;28;47368;-67
2022/09/18 00:55:13;;;;;;;;;11.67;9.33;;;;;;;;5033026;28;45757;-69
2022/09/18 00:57:41;;;;;;;;;8.00;6.33;;;;;;;;5015652;28;45330;-68
2022/09/18 01:00:11;;;;;;;;;10.67;8.33;;;;;;;;5043558;28;45782;-69
2022/09/18 01:02:38;;;;;;;;;7.33;7.00;;;;;;;;5032879;28;46415;-67
2022/09/18 01:05:03;;;;;;;;;9.00;7.00;;;;;;;;5031567;28;45723;-69
2022/09/18 01:07:31;;;;;;;;;5.33;5.33;;;;;;;;5033286;28;45715;-67
2022/09/18 01:10:15;;;;;;;;;11.67;9.00;;;;;;;;5033023;28;45614;-68
2022/09/18 01:12:40;;;;;;;;;8.00;8.00;;;;;;;;5032889;28;45686;-67
2022/09/18 01:15:09;;;;;;;;;10.67;9.67;;;;;;;;5032881;28;45548;-68
2022/09/18 01:17:38;;;;;;;;;6.67;6.67;;;;;;;;5031598;28;45263;-70
2022/09/18 01:20:22;;;;;;;;;8.00;8.00;;;;;;;;5021229;28;45514;-68
2022/09/18 01:23:03;;;;;;;;;6.00;6.00;;;;;;;;5042925;28;45677;-67
2022/09/18 01:25:44;;;;;;;;;6.00;5.00;;;;;;;;5032151;28;45652;-68
2022/09/18 01:28:13;;;;;;;;;6.00;5.00;;;;;;;;5032362;28;45727;-67
2022/09/18 01:30:40;;;;;;;;;6.33;6.00;;;;;;;;5032981;28;45748;-69
2022/09/18 01:33:09;;;;;;;;;7.00;6.00;;;;;;;;5032081;28;45874;-68
2022/09/18 01:35:51;;;;;;;;;6.00;6.00;;;;;;;;5032135;28;45394;-68
2022/09/18 01:38:19;;;;;;;;;5.00;5.00;;;;;;;;5031915;28;45656;-69
2022/09/18 01:40:50;;;;;;;;;8.00;7.00;;;;;;;;5032279;28;45389;-68
2022/09/18 01:43:17;;;;;;;;;7.67;6.33;;;;;;;;5032149;28;45458;-68
2022/09/18 01:45:43;;;;;;;;;7.00;7.00;;;;;;;;5030363;28;45894;-69
2022/09/18 01:48:11;;;;;;;;;8.00;6.67;;;;;;;;5032377;28;45494;-69
2022/09/18 01:50:39;;;;;;;;;7.33;6.00;;;;;;;;5018528;28;45389;-70
2022/09/18 01:53:22;;;;;;;;;7.00;5.33;;;;;;;;5027514;28;45503;-68
2022/09/18 01:56:06;;;;;;;;;9.67;7.00;;;;;;;;5034959;28;45440;-68
2022/09/18 01:58:33;;;;;;;;;6.67;5.67;;;;;;;;5031232;28;45489;-68
2022/09/18 02:01:00;;;;;;;;;6.67;6.67;;;;;;;;5033145;28;45660;-68
2022/09/18 02:03:31;;;;;;;;;8.33;8.00;;;;;;;;5032163;28;45507;-67
2022/09/18 02:05:59;;;;;;;;;7.00;7.00;;;;;;;;5027989;28;46031;-67
2022/09/18 02:08:24;;;;;;;;;7.67;6.00;;;;;;;;5031024;28;45456;-68
2022/09/18 02:11:04;;;;;;;;;7.33;5.00;;;;;;;;5031267;28;45693;-68
2022/09/18 02:13:31;;;;;;;;;12.00;9.33;;;;;;;;5025598;28;45751;-68
2022/09/18 02:15:58;;;;;;;;;7.00;6.00;;;;;;;;5030701;28;45443;-69
2022/09/18 02:18:27;;;;;;;;;7.00;7.00;;;;;;;;5030888;28;45541;-68
2022/09/18 02:20:54;;;;;;;;;9.33;8.33;;;;;;;;5029885;28;45789;-67
2022/09/18 02:23:19;;;;;;;;;4.67;4.67;;;;;;;;5029843;28;45693;-69
2022/09/18 02:25:49;;;;;;;;;5.00;5.00;;;;;;;;5028254;28;45714;-68
2022/09/18 02:28:16;;;;;;;;;4.00;4.00;;;;;;;;5025905;28;45454;-67
2022/09/18 02:30:41;;;;;;;;;7.33;4.00;;;;;;;;5029738;28;45611;-68
2022/09/18 02:33:23;;;;;;;;;7.00;4.67;;;;;;;;5031004;28;46370;-67
2022/09/18 02:35:51;;;;;;;;;6.67;5.00;;;;;;;;5031963;28;45370;-68
2022/09/18 02:38:24;;;;;;;;;7.00;5.33;;;;;;;;5000119;28;45697;-68
2022/09/18 02:41:06;;;;;;;;;7.33;5.33;;;;;;;;5020694;28;45365;-68
2022/09/18 02:43:50;;;;;;;;;5.00;5.00;;;;;;;;5023382;28;45476;-68
2022/09/18 02:46:22;;;;;;;;;6.00;6.00;;;;;;;;5030976;28;46809;-69
2022/09/18 02:48:59;;;;;;;;;5.67;5.00;;;;;;;;5031432;28;45706;-68
2022/09/18 02:51:41;;;;;;;;;10.33;5.33;;;;;;;;5031678;28;45473;-69
2022/09/18 02:54:10;;;;;;;;;5.67;5.00;;;;;;;;5020283;28;45704;-68
2022/09/18 02:57:00;;;;;;;;;5.00;5.00;;;;;;;;5031209;28;46353;-69
2022/09/18 02:59:25;;;;;;;;;5.67;4.00;;;;;;;;5016537;28;45600;-67
2022/09/18 03:01:51;;;;;;;;;5.67;5.00;;;;;;;;5026835;28;45723;-70
2022/09/18 03:04:21;;;;;;;;;6.00;4.67;;;;;;;;5029336;28;46156;-67
2022/09/18 03:06:46;;;;;;;;;5.00;5.00;;;;;;;;5034604;28;46678;-66
2022/09/18 03:09:12;;;;;;;;;4.67;4.00;;;;;;;;5034582;28;45736;-68
2022/09/18 03:11:37;;;;;;;;;7.00;5.00;;;;;;;;5034911;28;45741;-66
2022/09/18 03:14:03;;;;;;;;;5.33;4.33;;;;;;;;5016065;28;45537;-67
2022/09/18 03:16:28;;;;;;;;;6.00;5.00;;;;;;;;5017117;28;47308;-67
2022/09/18 03:18:53;;;;;;;;;6.00;4.67;;;;;;;;5034850;28;45255;-68
2022/09/18 03:21:19;;;;;;;;;7.67;6.00;;;;;;;;5034105;28;45699;-68
2022/09/18 03:23:45;;;;;;;;;5.67;5.67;;;;;;;;5034392;28;45518;-67
2022/09/18 03:26:10;;;;;;;;;5.67;5.33;;;;;;;;5026055;28;46149;-67
2022/09/18 03:28:35;;;;;;;;;5.00;5.00;;;;;;;;5034079;28;45268;-67
2022/09/18 03:31:01;;;;;;;;;5.67;5.33;;;;;;;;5035054;28;45616;-68
2022/09/18 03:33:26;;;;;;;;;7.67;6.33;;;;;;;;5034592;28;45624;-68
2022/09/18 03:35:51;;;;;;;;;5.33;4.67;;;;;;;;5034549;28;46535;-69
2022/09/18 03:38:17;;;;;;;;;10.00;4.00;;;;;;;;5034388;28;45740;-67
2022/09/18 03:40:43;;;;;;;;;7.00;7.00;;;;;;;;5034339;28;45626;-67
2022/09/18 03:43:08;;;;;;;;;8.33;6.33;;;;;;;;5033398;28;45481;-66
2022/09/18 03:45:33;;;;;;;;;8.00;6.00;;;;;;;;5034112;28;45806;-67
2022/09/18 03:47:58;;;;;;;;;5.33;5.33;;;;;;;;5034515;28;45828;-68
2022/09/18 03:50:24;;;;;;;;;7.33;6.67;;;;;;;;5034471;28;45669;-68
2022/09/18 03:52:49;;;;;;;;;8.67;8.00;;;;;;;;5033626;28;45671;-68
2022/09/18 03:55:14;;;;;;;;;8.67;6.00;;;;;;;;5033452;28;46099;-67
2022/09/18 03:57:40;;;;;;;;;8.00;8.00;;;;;;;;5033488;28;45706;-68
2022/09/18 04:00:05;;;;;;;;;5.33;5.33;;;;;;;;5035348;28;45706;-68
2022/09/18 04:02:30;;;;;;;;;5.67;5.00;;;;;;;;5033538;28;45675;-69
2022/09/18 04:04:56;;;;;;;;;6.00;5.67;;;;;;;;5033885;28;46716;-67
2022/09/18 04:07:21;;;;;;;;;7.33;5.00;;;;;;;;5033797;28;45550;-68
2022/09/18 04:09:46;;;;;;;;;7.00;5.00;;;;;;;;5027620;28;45710;-68
2022/09/18 04:12:11;;;;;;;;;7.00;4.00;;;;;;;;5033546;28;46490;-68
2022/09/18 04:14:37;;;;;;;;;5.33;5.33;;;;;;;;5034448;28;46416;-68
2022/09/18 04:17:02;;;;;;;;;6.00;4.33;;;;;;;;5033003;28;45520;-66
2022/09/18 04:19:27;;;;;;;;;7.00;6.00;;;;;;;;5027652;28;45800;-67
2022/09/18 04:21:52;;;;;;;;;7.00;6.00;;;;;;;;5034161;28;45411;-68
2022/09/18 04:24:18;;;;;;;;;4.33;4.00;;;;;;;;5033608;28;45523;-67
2022/09/18 04:26:43;;;;;;;;;3.00;3.00;;;;;;;;5024146;28;46123;-68
2022/09/18 04:29:08;;;;;;;;;6.00;6.00;;;;;;;;5033751;28;45715;-69
2022/09/18 04:31:33;;;;;;;;;9.33;6.33;;;;;;;;5032016;28;45455;-68
2022/09/18 04:33:59;;;;;;;;;6.00;4.00;;;;;;;;5033631;28;47009;-69
2022/09/18 04:36:24;;;;;;;;;6.33;5.67;;;;;;;;5021819;28;45287;-68
2022/09/18 04:38:49;;;;;;;;;4.67;4.67;;;;;;;;5033780;28;45552;-69
2022/09/18 04:41:14;;;;;;;;;6.67;5.00;;;;;;;;5026470;28;46212;-67
2022/09/18 04:43:40;;;;;;;;;5.67;5.67;;;;;;;;5032754;28;45692;-67
2022/09/18 04:46:05;;;;;;;;;5.33;5.00;;;;;;;;5024564;28;45663;-67
2022/09/18 04:48:30;;;;;;;;;5.00;4.00;;;;;;;;5033723;28;45335;-68
2022/09/18 04:50:55;;;;;;;;;5.67;5.67;;;;;;;;5033632;28;45619;-67
2022/09/18 04:53:21;;;;;;;;;6.00;4.33;;;;;;;;5034200;28;46309;-66
2022/09/18 04:55:46;;;;;;;;;11.00;7.00;;;;;;;;5031723;28;45907;-69
2022/09/18 04:58:13;;;;;;;;;6.00;6.00;;;;;;;;5026004;28;45324;-67
2022/09/18 05:00:38;;;;;;;;;7.00;7.00;;;;;;;;5034925;28;45830;-68
2022/09/18 05:03:04;;;;;;;;;7.00;6.67;;;;;;;;5033896;28;45644;-68
2022/09/18 05:05:29;;;;;;;;;9.33;8.33;;;;;;;;5018669;28;45482;-70
2022/09/18 05:07:59;;;;;;;;;4.33;4.33;;;;;;;;5032684;28;45370;-71
2022/09/18 05:10:24;;;;;;;;;9.00;6.67;;;;;;;;5033787;28;46185;-70
2022/09/18 05:12:49;;;;;;;;;8.00;7.00;;;;;;;;5032578;28;45749;-71
2022/09/18 05:15:15;;;;;;;;;6.33;6.00;;;;;;;;5033167;28;45644;-72
2022/09/18 05:17:40;;;;;;;;;6.67;4.00;;;;;;;;5033065;28;45916;-72
2022/09/18 05:20:09;;;;;;;;;5.67;5.33;;;;;;;;5029990;28;45344;-73
2022/09/18 05:22:34;;;;;;;;;7.00;5.00;;;;;;;;5031720;28;46384;-71
2022/09/18 05:24:59;;;;;;;;;7.33;6.00;;;;;;;;5031715;28;45450;-72
2022/09/18 05:27:25;;;;;;;;;7.00;5.00;;;;;;;;5030097;28;45569;-70
2022/09/18 05:29:50;;;;;;;;;9.00;5.00;;;;;;;;5031751;28;45395;-72
2022/09/18 05:32:19;;;;;;;;;9.33;7.00;;;;;;;;5031995;28;45453;-72
2022/09/18 05:34:44;;;;;;;;;5.67;5.67;;;;;;;;5031842;28;45648;-71
2022/09/18 05:37:10;;;;;;;;;6.33;4.33;;;;;;;;5032048;28;45676;-72
2022/09/18 05:39:36;;;;;;;;;5.67;5.67;;;;;;;;5032599;28;45351;-70
2022/09/18 05:42:01;;;;;;;;;5.00;5.00;;;;;;;;5032108;28;45749;-72
2022/09/18 05:44:26;;;;;;;;;9.67;6.00;;;;;;;;5027716;28;45396;-73
2022/09/18 05:46:52;;;;;;;;;7.33;6.00;;;;;;;;5032848;28;45319;-73
2022/09/18 05:49:17;;;;;;;;;8.00;7.67;;;;;;;;5031840;28;45894;-72
2022/09/18 05:51:43;;;;;;;;;5.67;5.67;;;;;;;;5041132;28;45477;-69
2022/09/18 05:54:08;;;;;;;;;5.33;5.33;;;;;;;;5034536;28;45564;-72
2022/09/18 05:56:34;;;;;;;;;5.00;5.00;;;;;;;;5028348;28;45648;-74
2022/09/18 05:58:59;;;;;;;;;7.00;5.33;;;;;;;;5032468;28;45374;-72
2022/09/18 06:01:24;;;;;;;;;7.67;6.00;;;;;;;;5031940;28;45756;-71
2022/09/18 06:03:50;;;;;;;;;5.00;5.00;;;;;;;;5032092;28;45694;-72
2022/09/18 06:06:15;;;;;;;;;6.00;6.00;;;;;;;;5029211;28;45753;-72
2022/09/18 06:08:40;;;;;;;;;6.00;6.00;;;;;;;;5029618;28;45591;-73
2022/09/18 06:11:06;;;;;;;;;3.67;3.67;;;;;;;;5012605;28;46969;-74
2022/09/18 06:13:31;;;;;;;;;6.67;6.67;;;;;;;;5030805;28;45965;-72
2022/09/18 06:15:57;;;;;;;;;7.00;4.00;;;;;;;;5030729;28;45426;-72
2022/09/18 06:18:22;;;;;;;;;6.33;5.00;;;;;;;;5030626;28;45778;-73
2022/09/18 06:20:52;;;;;;;;;6.67;3.67;;;;;;;;5029997;28;45989;-73
2022/09/18 06:23:18;;;;;;;;;5.00;5.00;;;;;;;;5030670;28;45724;-72
2022/09/18 06:25:43;;;;;;;;;4.67;4.67;;;;;;;;5029763;28;45786;-75
2022/09/18 06:28:08;;;;;;;;;7.00;6.00;;;;;;;;5009543;28;47109;-73
2022/09/18 06:30:34;;;;;;;;;7.67;4.00;;;;;;;;5022752;28;47049;-71
2022/09/18 06:33:06;;;;;;;;;6.67;5.00;;;;;;;;5024892;28;45551;-72
2022/09/18 06:35:32;;;;;;;;;5.33;5.33;;;;;;;;5023439;28;45659;-74
2022/09/18 06:38:01;;;;;;;;;7.33;5.67;;;;;;;;5024073;28;47217;-75
2022/09/18 06:40:27;;;;;;;;;6.33;5.00;;;;;;;;5023348;28;45960;-73
2022/09/18 06:42:56;;;;;;;;;4.67;4.00;;;;;;;;5028754;28;45760;-74
2022/09/18 06:45:22;;;;;;;;;5.33;4.00;;;;;;;;5028389;28;45761;-73
2022/09/18 06:47:47;;;;;;;;;4.33;3.00;;;;;;;;5029714;28;45495;-77
2022/09/18 06:50:12;;;;;;;;;3.00;3.00;;;;;;;;5026456;28;45548;-73
2022/09/18 06:52:37;;;;;;;;;2.67;2.67;;;;;;;;5028587;28;45361;-75
2022/09/18 06:55:03;;;;;;;;;5.67;4.00;;;;;;;;5029460;28;45603;-74
2022/09/18 06:57:28;;;;;;;;;4.00;3.00;;;;;;;;5030017;28;45565;-75
2022/09/18 06:59:53;;;;;;;;;4.00;3.00;;;;;;;;5028899;28;45976;-74
2022/09/18 07:02:19;;;;;;;;;3.00;3.00;;;;;;;;5030676;28;45555;-74
2022/09/18 07:04:45;;;;;;;;;2.00;2.00;;;;;;;;5028282;28;45976;-75
2022/09/18 07:07:10;;;;;;;;;2.00;2.00;;;;;;;;5028684;28;45663;-74
2022/09/18 07:09:36;;;;;;;;;1.50;1.50;;;;;;;;5026648;28;45885;-74
2022/09/18 07:12:01;;;;;;;;;6.67;4.67;;;;;;;;5030472;28;45964;-75
2022/09/18 07:14:26;;;;;;;;;2.50;2.50;;;;;;;;5012794;28;45828;-74
2022/09/18 07:16:52;;;;;;;;;1.50;1.50;;;;;;;;5030298;28;45453;-73
2022/09/18 07:19:17;;;;;;;;;1.75;1.75;;;;;;;;5029357;28;45785;-75
2022/09/18 07:21:42;;;;;;;;;2.00;2.00;;;;;;;;5022893;28;46061;-77
2022/09/18 07:24:07;;;;;;;;;3.75;2.50;;;;;;;;5028398;28;45461;-74
2022/09/18 07:26:33;;;;;;;;;3.00;3.00;;;;;;;;5030830;28;45597;-74
2022/09/18 07:28:58;;;;;;;;;3.67;2.67;;;;;;;;5027387;28;46400;-74
2022/09/18 07:31:23;;;;;;;;;3.00;3.00;;;;;;;;5028439;28;45378;-74
2022/09/18 07:33:49;;;;;;;;;2.00;2.00;;;;;;;;5028683;28;45480;-74
2022/09/18 07:36:14;;;;;;;;;3.00;3.00;;;;;;;;5027908;28;45473;-73
2022/09/18 07:38:41;;;;;;;;;4.67;3.33;;;;;;;;5028777;28;46480;-73
2022/09/18 07:41:07;;;;;;;;;0.67;0.67;;;;;;;;5031725;28;45872;-74
2022/09/18 07:43:32;;;;;;;;;3.00;3.00;;;;;;;;5008602;28;45938;-75
2022/09/18 07:45:57;;;;;;;;;3.00;3.00;;;;;;;;5011422;28;45560;-73
2022/09/18 07:48:23;;;;;;;;;3.00;3.00;;;;;;;;5028758;28;46623;-75
2022/09/18 07:50:48;;;;;;;;;4.00;4.00;;;;;;;;5028318;28;45737;-74
2022/09/18 07:53:13;;;;;;;;;8.00;7.33;;;;;;;;5028686;28;45695;-75
2022/09/18 07:55:41;;;;;;;;;3.67;3.67;;;;;;;;5027764;28;45477;-77
2022/09/18 07:58:07;;;;;;;;;6.00;6.00;;;;;;;;5028507;28;46691;-74
2022/09/18 08:00:33;;;;;;;;;5.33;4.33;;;;;;;;5028304;28;45618;-76
2022/09/18 08:03:03;;;;;;;;;8.67;7.00;;;;;;;;5029200;28;45643;-76
2022/09/18 08:05:29;;;;;;;;;9.67;9.67;;;;;;;;5025253;28;46046;-77
2022/09/18 08:07:54;;;;;;;;;29.67;25.33;;;;;;;;5026163;28;46516;-73
2022/09/18 08:10:19;;;;;;;;;25.33;18.00;;;;;;;;5025610;28;45903;-75
2022/09/18 08:12:44;;;;;;;;;11.33;9.00;;;;;;;;5026391;28;46019;-75
2022/09/18 08:15:10;;;;;;;;;30.00;23.00;;;;;;;;5028329;28;45870;-74
2022/09/18 08:17:42;;;;;;;;;37.33;33.33;;;;;;;;5026012;28;46210;-74
2022/09/18 08:20:08;;;;;;;;;6.67;6.67;;;;;;;;5027861;28;45787;-74
2022/09/18 08:22:36;;;;;;;;;10.33;6.00;;;;;;;;5028787;28;45886;-75
2022/09/18 08:25:02;;;;;;;;;15.67;8.67;;;;;;;;5029208;28;45492;-74
2022/09/18 08:27:27;;;;;;;;;14.67;9.67;;;;;;;;5012990;28;46571;-75
2022/09/18 08:29:52;;;;;;;;;5.67;5.67;;;;;;;;5026808;28;45947;-75
2022/09/18 08:32:18;;;;;;;;;11.00;5.00;;;;;;;;5030311;28;46200;-71
2022/09/18 08:34:43;;;;;;;;;6.67;6.67;;;;;;;;5027239;28;45789;-71
2022/09/18 08:37:08;;;;;;;;;14.33;11.00;;;;;;;;5010145;28;47190;-70
2022/09/18 08:39:34;;;;;;;;;14.00;10.67;;;;;;;;5029753;28;45685;-72
2022/09/18 08:42:18;;;;;;;;;19.67;16.00;;;;;;;;5033271;28;45363;-69
2022/09/18 08:44:52;;;;;;;;;22.67;20.33;;;;;;;;5029273;28;45477;-70
2022/09/18 08:47:22;;;;;;;;;11.33;7.33;;;;;;;;5031751;28;45731;-70
2022/09/18 08:49:47;;;;;;;;;11.00;7.67;;;;;;;;5025981;28;45244;-68
2022/09/18 08:52:13;;;;;;;;;4.67;4.33;;;;;;;;5027185;28;45368;-70
2022/09/18 08:54:57;;;;;;;;;11.00;8.67;;;;;;;;5028153;28;45581;-70
2022/09/18 08:57:41;;;;;;;;;6.00;6.00;;;;;;;;5012184;28;46834;-70
2022/09/18 09:00:18;;;;;;;;;5.00;4.33;;;;;;;;5034194;28;45627;-70
2022/09/18 09:02:51;;;;;;;;;9.33;6.33;;;;;;;;5025702;28;45768;-71
2022/09/18 09:05:19;;;;;;;;;6.33;6.33;;;;;;;;5040678;28;46373;-71
2022/09/18 09:07:59;;;;;;;;;14.33;12.33;;;;;;;;5015607;28;47079;-73
2022/09/18 09:10:53;;;;;;;;;16.33;10.67;;;;;;;;5029485;28;45658;-71
2022/09/18 09:13:34;;;;;;;;;26.00;21.33;;;;;;;;5027644;28;45941;-71
2022/09/18 09:16:21;;;;;;;;;3.00;1.67;;;;;;;;5030070;28;45428;-71
2022/09/18 09:19:12;;;;;;;;;7.00;7.00;;;;;;;;5033305;28;45698;-73
2022/09/18 09:21:43;;;;;;;;;13.33;13.33;;;;;;;;5027778;28;45360;-70
2022/09/18 09:24:24;;;;;;;;;14.33;12.00;;;;;;;;5032589;28;45446;-71
2022/09/18 09:26:51;;;;;;;;;11.75;10.50;;;;;;;;5032015;28;45707;-70
2022/09/18 09:29:44;;;;;;;;;8.25;6.75;;;;;;;;5055879;22;45991;-82
2022/09/18 09:32:44;;;;;;;;;7.00;6.00;;;;;;;;5064977;27;45588;-82
2022/09/18 09:35:30;;;;;;;;;3.25;2.00;;;;;;;;5055318;27;45694;-85
2022/09/18 09:38:14;;;;;;;;;4.00;4.00;;;;;;;;5071647;27;45451;-82
2022/09/18 09:41:02;;;;;;;;;4.50;4.00;;;;;;;;5068708;27;46348;-87
2022/09/18 09:43:36;;;;;;;;;4.50;3.00;;;;;;;;5025742;28;45537;-84
2022/09/18 09:49:31;;;;;;;;;3.00;3.00;;;;;;;;4977199;28;46149;-83
2022/09/18 09:52:01;;;;;;;;;2.00;1.00;;;;;;;;5010353;28;46449;-85
2022/09/18 09:54:26;;;;;;;;;2.00;2.00;;;;;;;;5063199;27;45813;-86
2022/09/18 09:56:58;;;;;;;;;1.50;1.50;;;;;;;;5070236;27;45422;-86
2022/09/18 09:59:26;;;;;;;;;2.50;1.75;;;;;;;;5069292;28;45652;-85
2022/09/18 10:01:57;;;;;;;;;0.00;0.00;;;;;;;;5059683;27;47284;-84
2022/09/18 10:04:22;;;;;;;;;0.25;0.25;;;;;;;;5073481;27;45963;-87
2022/09/18 10:07:11;;;;;;;;;2.00;1.00;;;;;;;;5057460;28;45753;-85
2022/09/18 10:09:42;;;;;;;;;1.00;1.00;;;;;;;;5057059;27;46064;-82
2022/09/18 10:12:26;;;;;;;;;0.00;0.00;;;;;;;;5070102;27;45539;-83
2022/09/18 10:14:57;;;;;;;;;0.80;0.80;;;;;;;;5067743;27;45650;-81
2022/09/18 10:17:23;;;;;;;;;2.50;2.00;;;;;;;;5061128;27;45503;-86
2022/09/18 10:19:49;;;;;;;;;1.25;1.00;;;;;;;;5073513;28;45556;-88
2022/09/18 10:22:18;;;;;;;;;1.00;1.00;;;;;;;;5060111;28;47151;-80
2022/09/18 10:24:52;;;;;;;;;0.00;0.00;;;;;;;;5069363;27;45967;-80
2022/09/18 10:27:18;;;;;;;;;1.75;1.75;;;;;;;;5061108;28;45557;-80
2022/09/18 10:29:44;;;;;;;;;1.25;1.00;;;;;;;;5066798;27;45942;-83
2022/09/18 10:32:12;;;;;;;;;1.00;1.00;;;;;;;;5063089;27;45553;-82
2022/09/18 10:34:41;;;;;;;;;0.00;0.00;;;;;;;;5051321;28;45500;-80
2022/09/18 10:37:32;;;;;;;;;1.75;1.75;;;;;;;;5048092;28;45928;-81
2022/09/18 10:39:59;;;;;;;;;2.25;1.00;;;;;;;;5055554;27;45648;-82
2022/09/18 10:42:26;;;;;;;;;2.00;1.00;;;;;;;;5065978;27;45677;-81
2022/09/18 10:44:57;;;;;;;;;3.00;2.00;;;;;;;;5042505;28;45567;-80
2022/09/18 10:47:30;;;;;;;;;0.00;0.00;;;;;;;;5057611;27;46564;-83
2022/09/18 10:50:05;;;;;;;;;2.25;1.00;;;;;;;;5075253;27;45872;-80
2022/09/18 10:52:37;;;;;;;;;0.75;0.00;;;;;;;;5072549;27;45567;-82
2022/09/18 10:55:06;;;;;;;;;1.00;1.00;;;;;;;;5065137;27;46065;-80
2022/09/18 10:57:34;;;;;;;;;1.00;1.00;;;;;;;;5067799;27;45512;-81
2022/09/18 11:00:00;;;;;;;;;0.25;0.25;;;;;;;;5067207;27;45482;-78
2022/09/18 11:02:27;;;;;;;;;2.75;0.00;;;;;;;;5062764;27;45616;-81
2022/09/18 11:04:58;;;;;;;;;1.50;0.75;;;;;;;;5062128;27;45647;-82
2022/09/18 11:07:24;;;;;;;;;1.00;1.00;;;;;;;;5061700;27;45570;-82
2022/09/18 11:09:51;;;;;;;;;1.00;1.00;;;;;;;;5063645;27;45606;-82
2022/09/18 11:12:19;;;;;;;;;4.50;2.00;;;;;;;;5052567;28;45787;-83
2022/09/18 11:14:49;;;;;;;;;1.00;1.00;;;;;;;;5050419;27;45571;-83
2022/09/18 11:17:23;;;;;;;;;2.50;2.00;;;;;;;;5063762;28;45481;-82
2022/09/18 11:19:50;;;;;;;;;3.00;1.25;;;;;;;;5062613;27;45475;-81
2022/09/18 11:22:49;;;;;;;;;1.50;1.50;;;;;;;;5074305;27;46257;-84
2022/09/18 11:25:22;;;;;;;;;3.00;1.25;;;;;;;;5033682;27;45696;-86
2022/09/18 11:27:49;;;;;;;;;2.25;1.00;;;;;;;;5083548;27;45535;-84
2022/09/18 11:30:23;;;;;;;;;2.50;2.00;;;;;;;;5049061;28;46110;-83
2022/09/18 11:33:01;;;;;;;;;3.00;1.25;;;;;;;;5048731;28;46701;-82
2022/09/18 11:35:28;;;;;;;;;2.00;2.00;;;;;;;;5030486;28;46017;-81
2022/09/18 11:37:57;;;;;;;;;2.00;1.00;;;;;;;;5054019;28;45901;-82
2022/09/18 11:40:43;;;;;;;;;1.00;1.00;;;;;;;;5034915;28;46088;-80
2022/09/18 11:43:47;;;;;;;;;1.25;1.25;;;;;;;;5055501;28;45945;-83
2022/09/18 11:53:23;;;;;;;;;;;;;;;;;;;;;
2022/09/18 11:56:40;;;;;;;;;2.00;1.00;;;;;;;;5043094;28;46519;-86
2022/09/18 11:59:43;;;;;;;;;3.25;2.50;;;;;;;;4964174;28;45725;-84
2022/09/18 12:02:37;;;;;;;;;1.25;1.25;;;;;;;;4877849;29;45905;-85
2022/09/18 12:05:25;;;;;;;;;2.50;2.50;;;;;;;;4875214;29;45777;-84
2022/09/18 12:07:54;;;;;;;;;1.00;1.00;;;;;;;;5004622;28;45450;-85
2022/09/18 12:10:26;;;;;;;;;1.00;1.00;;;;;;;;5020082;28;45156;-87
2022/09/18 12:13:10;;;;;;;;;1.00;1.00;;;;;;;;4996019;28;45690;-84
2022/09/18 12:15:46;;;;;;;;;2.50;1.25;;;;;;;;5015451;28;45535;-81
2022/09/18 12:18:25;;;;;;;;;1.00;1.00;;;;;;;;5001809;28;46546;-84
2022/09/18 12:20:54;;;;;;;;;1.00;1.00;;;;;;;;4998287;28;45530;-83
2022/09/18 12:23:27;;;;;;;;;1.75;1.75;;;;;;;;5005015;28;45650;-79
2022/09/18 12:25:59;;;;;;;;;3.00;2.25;;;;;;;;5016797;28;46836;-84
2022/09/18 12:28:49;;;;;;;;;0.75;0.25;;;;;;;;5034601;28;48238;-85
2022/09/18 12:31:22;;;;;;;;;2.00;2.00;;;;;;;;5074404;27;45964;-86
2022/09/18 12:34:01;;;;;;;;;1.00;1.00;;;;;;;;5057346;28;45468;-83
2022/09/18 12:36:30;;;;;;;;;6.67;6.67;;;;;;;;5043678;27;45948;-84
2022/09/18 12:39:18;;;;;;;;;4.33;4.00;;;;;;;;5077050;27;46814;-85
2022/09/18 12:45:32;;;;;;;;;1.00;1.00;;;;;;;;5076112;27;45571;-83
2022/09/18 12:51:20;;;;;;;;;2.33;2.00;;;;;;;;5070662;27;46310;-85
2022/09/18 12:54:00;;;;;;;;;3.25;3.25;;;;;;;;5063807;27;45677;-83
2022/09/18 12:56:33;;;;;;;;;2.25;2.25;;;;;;;;5077259;27;45989;-83
2022/09/18 12:59:05;;;;;;;;;2.00;2.00;;;;;;;;5045832;28;45584;-83
2022/09/18 13:01:57;;;;;;;;;3.00;3.00;;;;;;;;5053679;27;45683;-82
2022/09/18 13:04:34;;;;;;;;;2.50;1.00;;;;;;;;5050211;28;45777;-83
2022/09/18 13:07:24;;;;;;;;;3.50;1.25;;;;;;;;5073753;27;45769;-82
2022/09/18 13:09:52;;;;;;;;;3.00;3.00;;;;;;;;5070142;28;45356;-85
2022/09/18 13:12:21;;;;;;;;;2.00;0.50;;;;;;;;5073458;27;45637;-82
2022/09/18 13:15:13;;;;;;;;;3.00;1.25;;;;;;;;5054530;28;45453;-83
2022/09/18 13:17:51;;;;;;;;;1.25;1.25;;;;;;;;5019901;28;45560;-83
2022/09/18 13:20:49;;;;;;;;;1.00;0.50;;;;;;;;5087590;27;45424;-83
2022/09/18 13:23:25;;;;;;;;;3.00;1.33;;;;;;;;5075580;27;45637;-85
2022/09/18 13:25:57;;;;;;;;;3.00;3.00;;;;;;;;5070885;27;45526;-83
2022/09/18 13:28:23;;;;;;;;;2.00;1.00;;;;;;;;5056701;28;45500;-85
2022/09/18 13:31:07;;;;;;;;;3.00;3.00;;;;;;;;5055252;27;45902;-86
2022/09/18 13:33:54;;;;;;;;;4.33;3.00;;;;;;;;5075379;27;45575;-83
2022/09/18 13:36:27;;;;;;;;;2.33;2.33;;;;;;;;5072638;28;45755;-85
2022/09/18 13:38:54;;;;;;;;;1.00;1.00;;;;;;;;5072156;27;45525;-86
2022/09/18 13:41:28;;;;;;;;;1.00;0.00;;;;;;;;5079367;27;45564;-86
2022/09/18 13:44:02;;;;;;;;;3.00;2.00;;;;;;;;5076098;27;46702;-84
2022/09/18 13:46:34;;;;;;;;;2.00;2.00;;;;;;;;5060883;27;45701;-86
2022/09/18 13:49:03;;;;;;;;;4.33;1.33;;;;;;;;5073658;27;45597;-85
2022/09/18 13:51:31;;;;;;;;;1.00;1.00;;;;;;;;5084415;27;45531;-83
2022/09/18 13:54:51;;;;;;;;;;;;;;;;;;;;;
2022/09/18 14:00:19;;;;;;;;;2.75;2.75;;;;;;;;4981652;28;45467;-80
2022/09/18 14:02:47;;;;;;;;;4.00;2.33;;;;;;;;5050708;27;45566;-87
2022/09/18 14:05:33;;;;;;;;;2.50;2.50;;;;;;;;5036640;28;46719;-86
2022/09/18 14:08:02;;;;;;;;;4.75;2.00;;;;;;;;5064010;27;45857;-81
2022/09/18 14:10:34;;;;;;;;;2.00;2.00;;;;;;;;5041875;28;45264;-82
2022/09/18 14:13:25;;;;;;;;;2.00;2.00;;;;;;;;5067559;27;45906;-86
2022/09/18 14:15:55;;;;;;;;;1.75;1.75;;;;;;;;5060273;28;45589;-82
2022/09/18 14:18:29;;;;;;;;;3.00;2.25;;;;;;;;5056939;27;45923;-85
2022/09/18 14:20:58;;;;;;;;;3.00;2.00;;;;;;;;5052972;27;45778;-87
2022/09/18 14:23:33;;;;;;;;;2.75;1.00;;;;;;;;5077089;27;45770;-86
2022/09/18 14:26:03;;;;;;;;;2.75;2.00;;;;;;;;5069807;27;46319;-84
2022/09/18 14:29:09;;;;;;;;;1.00;1.00;;;;;;;;5078569;27;45670;-84
2022/09/18 14:31:54;;;;;;;;;1.00;1.00;;;;;;;;5070001;27;45855;-85
2022/09/18 14:34:55;;;;;;;;;1.25;1.00;;;;;;;;5065781;27;45704;-84
2022/09/18 14:37:44;;;;;;;;;2.50;0.75;;;;;;;;5052577;28;48294;-84
2022/09/18 14:40:23;;;;;;;;;1.00;1.00;;;;;;;;5067337;28;45454;-85
2022/09/18 14:52:48;;;;;;;;;0.50;0.50;;;;;;;;4950097;28;45937;-83
2022/09/18 14:58:21;;;;;;;;;2.25;2.00;;;;;;;;4837375;29;45415;-79
2022/09/18 15:04:56;;;;;;;;;;;;;;;;;;;;;
2022/09/18 15:17:33;;;;;;;;;;;;;;;;;;;;;
2022/09/18 15:20:14;;;;;;;;;0.00;0.00;;;;;;;;4987577;28;68988;-89
2022/09/18 15:26:41;;;;;;;;;0.00;0.00;;;;;;;;5067641;27;45751;-85
2022/09/18 15:29:15;;;;;;;;;1.00;1.00;;;;;;;;4967521;28;45676;-87
2022/09/18 15:32:00;;;;;;;;;0.33;0.00;;;;;;;;4973450;28;45622;-87
2022/09/18 15:43:49;;;;;;;;;3.67;2.00;;;;;;;;4983995;28;44879;-89
2022/09/18 15:49:53;;;;;;;;;0.00;0.00;;;;;;;;4978976;28;46225;-86
2022/09/18 15:55:52;;;;;;;;;1.75;0.75;;;;;;;;5009374;22;45822;-81
2022/09/18 15:58:39;;;;;;;;;2.00;0.50;;;;;;;;5041779;28;45929;-70
2022/09/18 16:01:06;;;;;;;;;0.50;0.50;;;;;;;;5045260;28;45713;-71
2022/09/18 16:03:31;;;;;;;;;1.00;1.00;;;;;;;;5035488;28;45904;-70
2022/09/18 16:05:59;;;;;;;;;0.00;0.00;;;;;;;;5044918;28;45595;-71
2022/09/18 16:08:28;;;;;;;;;1.00;0.00;;;;;;;;5045473;28;45838;-73
2022/09/18 16:10:54;;;;;;;;;1.00;1.00;;;;;;;;5043753;28;45670;-72
2022/09/18 16:13:20;;;;;;;;;0.67;0.00;;;;;;;;5041897;28;46164;-70